createdAt,value
2017-06-13T00:02:04.160Z,9.43
2017-06-13T00:04:31.710Z,8.53
2017-06-13T00:07:00.347Z,10.07
2017-06-13T00:09:27.882Z,10.63
2017-06-13T00:11:55.414Z,9.87
2017-06-13T00:14:23.259Z,8.07
2017-06-13T00:16:50.783Z,8.83
2017-06-13T00:19:18.308Z,8.27
2017-06-13T00:21:45.908Z,8.70
2017-06-13T00:24:13.444Z,7.33
2017-06-13T00:26:41.000Z,8.43
2017-06-13T00:29:08.570Z,9.53
2017-06-13T00:31:36.106Z,9.53
2017-06-13T00:34:04.432Z,9.27
2017-06-13T00:36:31.996Z,9.43
2017-06-13T00:38:59.553Z,10.20
2017-06-13T00:41:27.087Z,7.90
2017-06-13T00:43:54.663Z,7.33
2017-06-13T00:46:22.191Z,10.80
2017-06-13T00:48:49.725Z,8.90
2017-06-13T00:51:17.331Z,8.17
2017-06-13T00:53:44.888Z,8.93
2017-06-13T00:56:12.442Z,8.27
2017-06-13T00:58:40.367Z,8.40
2017-06-13T01:01:07.913Z,10.10
2017-06-13T01:03:35.537Z,8.73
2017-06-13T01:06:03.491Z,8.07
2017-06-13T01:08:31.024Z,8.67
2017-06-13T01:10:58.630Z,8.20
2017-06-13T01:13:26.343Z,10.20
2017-06-13T01:15:53.871Z,12.30
2017-06-13T01:18:21.407Z,7.27
2017-06-13T01:20:48.973Z,7.20
2017-06-13T01:23:16.497Z,8.17
2017-06-13T01:25:44.025Z,8.17
2017-06-13T01:28:11.894Z,7.53
2017-06-13T01:30:39.437Z,8.80
2017-06-13T01:33:06.962Z,8.20
2017-06-13T01:35:35.299Z,10.70
2017-06-13T01:38:02.828Z,11.17
2017-06-13T01:40:30.360Z,19.40
2017-06-13T01:42:58.685Z,8.17
2017-06-13T01:45:26.244Z,8.43
2017-06-13T01:47:53.773Z,9.30
2017-06-13T01:50:21.600Z,11.10
2017-06-13T01:52:49.129Z,9.43
2017-06-13T01:55:16.660Z,8.57
2017-06-13T01:57:44.217Z,9.33
2017-06-13T02:00:11.744Z,9.13
2017-06-13T02:02:39.271Z,8.30
2017-06-13T02:05:06.843Z,8.87
2017-06-13T02:07:34.368Z,7.83
2017-06-13T02:10:01.885Z,8.77
2017-06-13T02:12:29.444Z,9.93
2017-06-13T02:14:56.975Z,11.27
2017-06-13T02:17:24.514Z,9.60
2017-06-13T02:19:52.337Z,8.97
2017-06-13T02:22:20.624Z,8.47
2017-06-13T02:24:48.146Z,9.30
2017-06-13T02:27:15.720Z,9.83
2017-06-13T02:29:43.262Z,9.77
2017-06-13T02:32:10.804Z,11.73
2017-06-13T02:34:38.627Z,11.83
2017-06-13T02:37:06.172Z,12.10
2017-06-13T02:39:33.695Z,8.63
2017-06-13T02:42:01.293Z,10.47
2017-06-13T02:44:28.821Z,13.00
2017-06-13T02:46:56.347Z,11.00
2017-06-13T02:49:23.919Z,15.73
2017-06-13T02:51:51.479Z,9.10
2017-06-13T02:54:19.017Z,9.47
2017-06-13T02:56:47.648Z,10.10
2017-06-13T02:59:15.180Z,11.13
2017-06-13T03:01:42.760Z,9.80
2017-06-13T03:04:10.344Z,9.30
2017-06-13T03:06:37.879Z,10.13
2017-06-13T03:09:05.409Z,10.13
2017-06-13T03:11:33.986Z,9.27
2017-06-13T03:14:02.276Z,8.07
2017-06-13T03:16:29.819Z,10.83
2017-06-13T03:18:57.456Z,11.70
2017-06-13T03:21:25.006Z,9.00
2017-06-13T03:23:52.520Z,8.87
2017-06-13T03:26:20.090Z,10.73
2017-06-13T03:28:47.640Z,10.00
2017-06-13T03:31:15.175Z,10.03
2017-06-13T03:33:42.768Z,11.93
2017-06-13T03:36:10.305Z,11.40
2017-06-13T03:38:37.846Z,8.37
2017-06-13T03:41:05.420Z,10.00
2017-06-13T03:43:33.732Z,14.33
2017-06-13T03:46:01.254Z,11.47
2017-06-13T03:48:28.826Z,11.73
2017-06-13T03:50:57.125Z,12.07
2017-06-13T03:53:24.644Z,8.97
2017-06-13T03:55:52.237Z,11.17
2017-06-13T03:58:19.784Z,9.63
2017-06-13T04:00:48.073Z,7.37
2017-06-13T04:03:15.659Z,9.77
2017-06-13T04:05:43.221Z,8.37
2017-06-13T04:08:10.744Z,7.57
2017-06-13T04:10:38.313Z,11.93
2017-06-13T04:13:05.869Z,7.67
2017-06-13T04:15:33.404Z,12.00
2017-06-13T04:18:00.990Z,9.17
2017-06-13T04:20:28.532Z,7.07
2017-06-13T04:22:56.078Z,7.20
2017-06-13T04:25:23.697Z,8.67
2017-06-13T04:27:51.244Z,9.27
2017-06-13T04:30:18.787Z,8.73
2017-06-13T04:32:47.194Z,9.13
2017-06-13T04:35:14.737Z,10.63
2017-06-13T04:37:42.272Z,9.10
2017-06-13T04:40:09.872Z,10.97
2017-06-13T04:42:37.419Z,8.50
2017-06-13T04:45:04.941Z,8.60
2017-06-13T04:47:32.881Z,8.97
2017-06-13T04:50:00.434Z,8.23
2017-06-13T04:52:27.968Z,9.20
2017-06-13T04:54:55.540Z,13.43
2017-06-13T04:57:23.078Z,8.03
2017-06-13T04:59:51.365Z,7.47
2017-06-13T05:02:18.936Z,13.90
2017-06-13T05:04:46.466Z,10.10
2017-06-13T05:07:14.759Z,19.63
2017-06-13T05:09:42.339Z,9.20
2017-06-13T05:12:09.879Z,16.03
2017-06-13T05:14:37.438Z,14.37
2017-06-13T05:17:06.105Z,8.60
2017-06-13T05:19:33.627Z,7.30
2017-06-13T05:22:01.176Z,8.13
2017-06-13T05:24:28.771Z,9.27
2017-06-13T05:26:56.396Z,10.20
2017-06-13T05:29:23.936Z,9.87
2017-06-13T05:31:51.528Z,8.73
2017-06-13T05:34:19.064Z,11.10
2017-06-13T05:36:46.590Z,6.97
2017-06-13T05:39:14.170Z,10.90
2017-06-13T05:41:41.727Z,7.20
2017-06-13T05:44:10.035Z,5.90
2017-06-13T05:46:37.620Z,8.83
2017-06-13T05:49:05.410Z,12.50
2017-06-13T05:51:33.040Z,10.10
2017-06-13T06:02:09.945Z,11.67
2017-06-13T06:04:37.538Z,8.27
2017-06-13T06:07:05.067Z,8.87
2017-06-13T06:09:32.637Z,8.57
2017-06-13T06:12:00.742Z,7.03
2017-06-13T06:14:28.285Z,10.00
2017-06-13T06:16:55.839Z,6.33
2017-06-13T06:19:23.456Z,8.87
2017-06-13T06:21:54.513Z,6.73
2017-06-13T06:24:22.220Z,8.67
2017-06-13T06:26:50.207Z,6.77
2017-06-13T06:29:17.993Z,7.10
2017-06-13T06:31:45.839Z,9.47
2017-06-13T06:34:13.740Z,10.80
2017-06-13T06:36:41.341Z,7.10
2017-06-13T06:39:08.870Z,7.23
2017-06-13T06:41:37.470Z,8.03
2017-06-13T06:44:05.420Z,10.93
2017-06-13T06:46:32.955Z,5.43
2017-06-13T06:49:00.816Z,6.37
2017-06-13T06:51:28.377Z,8.00
2017-06-13T06:53:56.013Z,10.23
2017-06-13T06:56:23.637Z,5.30
2017-06-13T06:58:51.188Z,14.90
2017-06-13T07:01:19.521Z,8.70
2017-06-13T07:03:47.096Z,8.23
2017-06-13T07:06:14.736Z,7.87
2017-06-13T07:08:42.351Z,11.40
2017-06-13T07:11:10.190Z,9.67
2017-06-13T07:13:38.888Z,5.97
2017-06-13T07:16:06.653Z,10.93
2017-06-13T07:18:34.257Z,8.30
2017-06-13T07:21:01.808Z,6.50
2017-06-13T07:23:29.341Z,6.23
2017-06-13T07:25:57.695Z,7.03
2017-06-13T07:28:25.234Z,9.67
2017-06-13T07:30:52.800Z,5.60
2017-06-13T07:33:20.440Z,4.13
2017-06-13T07:35:47.984Z,6.10
2017-06-13T07:38:15.506Z,9.53
2017-06-13T07:40:43.088Z,7.70
2017-06-13T07:43:10.677Z,13.83
2017-06-13T07:45:38.200Z,4.33
2017-06-13T07:48:05.765Z,4.17
2017-06-13T07:50:33.304Z,6.43
2017-06-13T07:53:00.839Z,4.17
2017-06-13T07:55:28.421Z,8.53
2017-06-13T07:57:55.953Z,5.23
2017-06-13T08:00:23.477Z,6.23
2017-06-13T08:02:51.074Z,5.23
2017-06-13T08:05:19.049Z,3.97
2017-06-13T08:07:46.618Z,5.43
2017-06-13T08:10:14.223Z,4.27
2017-06-13T08:12:41.767Z,8.80
2017-06-13T08:15:09.305Z,6.50
2017-06-13T08:17:37.163Z,7.77
2017-06-13T08:20:04.691Z,6.47
2017-06-13T08:22:32.211Z,3.50
2017-06-13T08:24:59.791Z,8.90
2017-06-13T08:27:28.110Z,4.60
2017-06-13T08:29:55.661Z,6.90
2017-06-13T08:32:23.270Z,6.57
2017-06-13T08:34:50.810Z,7.47
2017-06-13T08:37:18.337Z,5.00
2017-06-13T08:39:45.922Z,7.80
2017-06-13T08:42:13.494Z,5.53
2017-06-13T08:44:41.022Z,5.83
2017-06-13T08:47:08.602Z,4.70
2017-06-13T08:49:36.160Z,5.20
2017-06-13T08:52:03.701Z,3.77
2017-06-13T08:54:31.275Z,4.30
2017-06-13T08:56:58.964Z,3.77
2017-06-13T08:59:26.626Z,3.73
2017-06-13T09:01:54.220Z,5.83
2017-06-13T09:04:22.551Z,7.30
2017-06-13T09:06:50.245Z,4.73
2017-06-13T09:09:19.186Z,7.00
2017-06-13T09:11:46.881Z,4.80
2017-06-13T09:14:14.489Z,4.97
2017-06-13T09:16:42.073Z,3.90
2017-06-13T09:19:09.612Z,7.00
2017-06-13T09:21:37.136Z,6.30
2017-06-13T09:24:04.775Z,5.07
2017-06-13T09:26:32.319Z,3.70
2017-06-13T09:28:59.866Z,5.33
2017-06-13T09:31:27.457Z,14.50
2017-06-13T09:33:55.688Z,5.80
2017-06-13T09:36:24.006Z,3.97
2017-06-13T09:38:52.950Z,4.03
2017-06-13T09:41:20.556Z,5.50
2017-06-13T09:43:48.089Z,4.53
2017-06-13T09:46:16.466Z,3.97
2017-06-13T09:48:43.998Z,5.13
2017-06-13T09:51:12.214Z,3.80
2017-06-13T09:53:39.785Z,2.97
2017-06-13T09:56:07.396Z,6.90
2017-06-13T09:58:34.941Z,5.20
2017-06-13T10:01:02.530Z,4.80
2017-06-13T10:03:30.067Z,3.90
2017-06-13T10:05:57.611Z,3.03
2017-06-13T10:08:25.201Z,3.63
2017-06-13T10:10:52.732Z,4.13
2017-06-13T10:13:20.274Z,5.00
2017-06-13T10:15:47.853Z,4.77
2017-06-13T10:18:15.381Z,5.37
2017-06-13T10:20:42.912Z,3.23
2017-06-13T10:23:10.480Z,2.70
2017-06-13T10:25:38.045Z,2.90
2017-06-13T10:28:06.343Z,3.00
2017-06-13T10:30:33.932Z,3.70
2017-06-13T10:33:01.644Z,3.50
2017-06-13T10:35:29.305Z,5.43
2017-06-13T10:37:56.897Z,1.93
2017-06-13T10:40:24.440Z,4.87
2017-06-13T10:42:52.003Z,4.60
2017-06-13T10:45:21.625Z,3.13
2017-06-13T10:47:49.173Z,2.83
2017-06-13T10:50:20.487Z,3.93
2017-06-13T10:52:48.094Z,6.00
2017-06-13T10:55:15.638Z,5.23
2017-06-13T10:57:43.207Z,3.20
2017-06-13T11:00:10.800Z,8.10
2017-06-13T11:02:38.344Z,7.03
2017-06-13T11:05:05.915Z,3.13
2017-06-13T11:07:33.499Z,5.53
2017-06-13T11:10:01.024Z,5.57
2017-06-13T11:12:28.555Z,5.50
2017-06-13T11:14:56.898Z,4.10
2017-06-13T11:17:24.430Z,4.27
2017-06-13T11:19:52.094Z,7.13
2017-06-13T11:22:19.696Z,3.83
2017-06-13T11:24:47.238Z,7.77
2017-06-13T11:27:15.027Z,7.17
2017-06-13T11:29:42.600Z,5.47
2017-06-13T11:32:10.918Z,4.90
2017-06-13T11:34:38.460Z,4.00
2017-06-13T11:37:06.037Z,4.20
2017-06-13T11:39:33.588Z,6.73
2017-06-13T11:42:01.125Z,5.10
2017-06-13T11:44:28.721Z,7.53
2017-06-13T11:46:56.259Z,3.57
2017-06-13T11:49:23.790Z,5.33
2017-06-13T11:51:51.387Z,4.30
2017-06-13T11:54:18.945Z,3.53
2017-06-13T11:56:46.585Z,4.50
2017-06-13T11:59:14.913Z,3.60
2017-06-13T12:01:42.468Z,5.70
2017-06-13T12:04:10.000Z,5.17
2017-06-13T12:06:37.901Z,5.10
2017-06-13T12:09:05.459Z,5.43
2017-06-13T12:11:33.005Z,4.50
2017-06-13T12:14:00.593Z,7.63
2017-06-13T12:16:28.133Z,4.22
2017-06-13T12:18:55.767Z,3.77
2017-06-13T12:21:24.234Z,6.40
2017-06-13T12:23:51.771Z,6.03
2017-06-13T12:26:19.285Z,4.40
2017-06-13T12:28:46.884Z,5.13
2017-06-13T12:31:14.422Z,5.30
2017-06-13T12:33:41.947Z,4.53
2017-06-13T12:36:09.513Z,4.70
2017-06-13T12:38:37.045Z,6.07
2017-06-13T12:41:05.450Z,6.07
2017-06-13T12:43:33.583Z,6.30
2017-06-13T12:46:01.180Z,5.40
2017-06-13T12:48:28.717Z,4.13
2017-06-13T12:50:57.207Z,7.10
2017-06-13T12:53:25.496Z,7.10
2017-06-13T12:55:53.141Z,6.73
2017-06-13T12:58:21.616Z,8.40
2017-06-13T13:00:49.196Z,7.10
2017-06-13T13:03:16.768Z,5.60
2017-06-13T13:05:44.505Z,8.13
2017-06-13T13:08:12.814Z,6.00
2017-06-13T13:10:40.366Z,4.53
2017-06-13T13:13:07.976Z,5.73
2017-06-13T13:15:35.556Z,4.83
2017-06-13T13:18:24.207Z,4.70
2017-06-13T13:21:00.179Z,7.50
2017-06-13T13:23:27.983Z,6.53
2017-06-13T13:25:55.806Z,5.07
2017-06-13T13:28:24.801Z,4.57
2017-06-13T13:30:52.484Z,6.63
2017-06-13T13:33:25.413Z,4.80
2017-06-13T13:36:02.235Z,7.23
2017-06-13T13:38:29.773Z,4.87
2017-06-13T13:41:00.622Z,10.37
2017-06-13T13:43:28.387Z,6.10
2017-06-13T13:45:56.936Z,8.53
2017-06-13T13:48:24.514Z,6.07
2017-06-13T13:50:54.709Z,4.87
2017-06-13T13:53:22.437Z,5.90
2017-06-13T13:55:50.943Z,5.13
2017-06-13T13:58:18.520Z,6.97
2017-06-13T14:00:47.457Z,7.50
2017-06-13T14:03:16.954Z,4.47
2017-06-13T14:05:52.217Z,5.77
2017-06-13T14:08:19.892Z,5.27
2017-06-13T14:10:48.202Z,4.10
2017-06-13T14:13:16.498Z,5.40
2017-06-13T14:15:44.086Z,5.03
2017-06-13T14:21:14.517Z,4.00
2017-06-13T14:23:42.879Z,5.53
2017-06-13T14:26:11.423Z,4.20
2017-06-13T14:28:39.140Z,4.47
2017-06-13T14:31:06.689Z,5.43
2017-06-13T14:33:34.262Z,4.20
2017-06-13T14:36:01.817Z,5.00
2017-06-13T14:38:29.352Z,5.13
2017-06-13T14:40:56.914Z,4.23
2017-06-13T14:43:24.453Z,4.60
2017-06-13T14:45:52.744Z,4.13
2017-06-13T14:48:20.329Z,4.70
2017-06-13T14:50:48.865Z,5.03
2017-06-13T14:53:17.183Z,5.70
2017-06-13T14:55:44.844Z,9.53
2017-06-13T15:01:20.363Z,4.83
2017-06-13T15:12:53.882Z,5.53
2017-06-13T15:18:29.543Z,4.63
2017-06-13T15:20:57.076Z,4.63
2017-06-13T15:23:24.594Z,3.87
2017-06-13T15:25:52.233Z,4.17
2017-06-13T15:30:58.528Z,3.83
2017-06-13T15:33:28.851Z,5.50
2017-06-13T15:35:57.212Z,4.33
2017-06-13T15:38:25.604Z,6.13
2017-06-13T15:40:53.410Z,5.37
2017-06-13T15:43:21.773Z,6.30
2017-06-13T15:45:49.366Z,8.70
2017-06-13T15:48:17.685Z,5.90
2017-06-13T15:50:45.194Z,5.50
2017-06-13T15:53:13.540Z,4.07
2017-06-13T15:55:41.072Z,7.00
2017-06-13T15:58:08.646Z,4.47
2017-06-13T16:00:37.564Z,4.27
2017-06-13T16:03:05.106Z,4.90
2017-06-13T16:05:32.669Z,4.80
2017-06-13T16:10:37.149Z,6.67
2017-06-13T16:13:05.051Z,5.87
2017-06-13T16:15:32.589Z,9.83
2017-06-13T16:18:01.395Z,5.30
2017-06-13T16:23:13.951Z,6.67
2017-06-13T16:25:47.776Z,4.83
2017-06-13T16:28:18.502Z,6.20
2017-06-13T16:30:50.323Z,3.50
2017-06-13T16:33:17.903Z,5.13
2017-06-13T16:35:45.472Z,6.20
2017-06-13T16:38:13.054Z,7.87
2017-06-13T16:40:40.581Z,3.80
2017-06-13T16:43:26.608Z,10.00
2017-06-13T16:45:54.223Z,5.10
2017-06-13T16:48:23.493Z,5.90
2017-06-13T16:50:52.640Z,4.67
2017-06-13T16:53:20.168Z,3.87
2017-06-13T16:55:48.521Z,3.70
2017-06-13T16:58:16.170Z,4.53
2017-06-13T17:00:43.724Z,3.93
2017-06-13T17:03:11.245Z,4.37
2017-06-13T17:05:54.029Z,4.20
2017-06-13T17:08:21.576Z,4.70
2017-06-13T17:10:49.179Z,3.90
2017-06-13T17:13:16.786Z,3.03
2017-06-13T17:15:44.339Z,3.73
2017-06-13T17:18:11.885Z,4.77
2017-06-13T17:20:39.750Z,6.03
2017-06-13T17:23:08.142Z,4.67
2017-06-13T17:25:35.681Z,5.70
2017-06-13T17:28:03.380Z,3.77
2017-06-13T17:30:30.909Z,3.17
2017-06-13T17:32:58.493Z,4.40
2017-06-13T17:35:29.338Z,4.13
2017-06-13T17:37:57.083Z,2.97
2017-06-13T17:40:25.586Z,4.20
2017-06-13T17:42:53.183Z,3.17
2017-06-13T17:45:22.598Z,3.30
2017-06-13T17:47:55.419Z,4.87
2017-06-13T17:50:25.127Z,3.67
2017-06-13T17:52:53.962Z,3.77
2017-06-13T17:58:29.610Z,4.37
2017-06-13T18:00:59.659Z,4.33
2017-06-13T18:03:28.209Z,3.70
2017-06-13T18:05:57.637Z,4.10
2017-06-13T18:08:30.856Z,3.27
2017-06-13T18:11:01.300Z,4.97
2017-06-13T18:13:39.369Z,3.57
2017-06-13T18:16:09.263Z,4.03
2017-06-13T18:18:37.119Z,5.20
2017-06-13T18:21:07.448Z,3.70
2017-06-13T18:23:35.196Z,3.23
2017-06-13T18:26:04.240Z,4.40
2017-06-13T18:28:35.365Z,2.60
2017-06-13T18:31:03.082Z,3.07
2017-06-13T18:33:33.590Z,7.87
2017-06-13T18:36:04.058Z,3.27
2017-06-13T18:50:52.540Z,3.23
2017-06-13T18:53:21.016Z,3.70
2017-06-13T18:55:50.692Z,3.77
2017-06-13T18:58:34.857Z,4.03
2017-06-13T19:03:55.368Z,3.13
2017-06-13T19:06:22.959Z,3.17
2017-06-13T19:08:50.530Z,3.60
2017-06-13T19:11:18.919Z,3.20
2017-06-13T19:13:46.487Z,3.97
2017-06-13T19:16:14.054Z,2.90
2017-06-13T19:18:41.647Z,3.73
2017-06-13T19:21:09.215Z,3.20
2017-06-13T19:23:36.821Z,3.53
2017-06-13T19:26:04.438Z,4.40
2017-06-13T19:28:32.403Z,3.43
2017-06-13T19:31:00.035Z,3.33
2017-06-13T19:33:27.662Z,3.80
2017-06-13T19:35:55.256Z,3.30
2017-06-13T19:38:22.886Z,4.83
2017-06-13T19:40:50.602Z,3.97
2017-06-13T19:43:18.230Z,4.00
2017-06-13T19:45:47.711Z,3.13
2017-06-13T19:48:15.737Z,3.10
2017-06-13T19:50:43.282Z,4.50
2017-06-13T19:53:10.903Z,3.40
2017-06-13T19:55:38.533Z,3.20
2017-06-13T19:58:06.132Z,6.40
2017-06-13T20:00:33.668Z,5.40
2017-06-13T20:03:01.265Z,3.43
2017-06-13T20:05:29.612Z,4.53
2017-06-13T20:07:57.176Z,3.90
2017-06-13T20:10:24.886Z,4.23
2017-06-13T20:12:52.499Z,3.80
2017-06-13T20:15:20.123Z,4.20
2017-06-13T20:17:47.760Z,4.70
2017-06-13T20:20:15.418Z,4.20
2017-06-13T20:22:43.142Z,3.73
2017-06-13T20:25:11.169Z,4.23
2017-06-13T20:27:38.770Z,5.23
2017-06-13T20:30:06.544Z,4.73
2017-06-13T20:32:34.200Z,5.50
2017-06-13T20:35:07.502Z,4.70
2017-06-13T20:37:35.082Z,4.60
2017-06-13T20:40:03.420Z,4.50
2017-06-13T20:42:31.440Z,4.47
2017-06-13T20:44:59.863Z,4.83
2017-06-13T20:47:27.406Z,5.63
2017-06-13T20:49:54.944Z,4.43
2017-06-13T20:52:23.313Z,4.63
2017-06-13T20:54:51.669Z,5.00
2017-06-13T20:57:19.210Z,4.80
2017-06-13T20:59:46.894Z,6.93
2017-06-13T21:02:14.463Z,4.70
2017-06-13T21:04:42.114Z,4.93
2017-06-13T21:07:09.741Z,5.10
2017-06-13T21:09:37.342Z,4.40
2017-06-13T21:12:09.677Z,5.63
2017-06-13T21:14:37.342Z,6.33
2017-06-13T21:17:04.906Z,5.20
2017-06-13T21:19:32.582Z,4.10
2017-06-13T21:22:00.168Z,6.23
2017-06-13T21:24:27.762Z,5.63
2017-06-13T21:26:55.511Z,5.57
2017-06-13T21:29:23.072Z,5.00
2017-06-13T21:31:50.860Z,5.53
2017-06-13T21:34:18.561Z,6.00
2017-06-13T21:36:46.110Z,5.60
2017-06-13T21:39:13.644Z,6.23
2017-06-13T21:41:41.220Z,5.70
2017-06-13T21:44:08.772Z,5.80
2017-06-13T21:46:36.402Z,5.87
2017-06-13T21:49:04.783Z,6.27
2017-06-13T21:51:33.094Z,6.13
2017-06-13T21:54:00.655Z,6.63
2017-06-13T21:56:28.266Z,6.10
2017-06-13T21:58:55.804Z,6.70
2017-06-13T22:01:23.438Z,6.33
2017-06-13T22:03:51.029Z,6.33
2017-06-13T22:06:18.576Z,6.37
2017-06-13T22:08:46.124Z,6.00
2017-06-13T22:11:13.697Z,6.50
2017-06-13T22:13:41.253Z,5.90
2017-06-13T22:16:08.801Z,5.80
2017-06-13T22:18:36.382Z,5.70
2017-06-13T22:21:03.941Z,5.50
2017-06-13T22:23:31.505Z,5.90
2017-06-13T22:25:59.075Z,8.83
2017-06-13T22:28:26.620Z,5.37
2017-06-13T22:30:54.153Z,6.43
2017-06-13T22:33:21.778Z,5.60
2017-06-13T22:35:49.345Z,6.73
2017-06-13T22:38:17.660Z,6.00
2017-06-13T22:40:45.230Z,5.73
2017-06-13T22:43:12.771Z,6.33
2017-06-13T22:45:40.302Z,5.20
2017-06-13T22:48:07.887Z,6.33
2017-06-13T22:50:36.302Z,6.40
2017-06-13T22:53:03.825Z,6.67
2017-06-13T22:55:32.192Z,6.70
2017-06-13T22:57:59.736Z,6.17
2017-06-13T23:00:27.264Z,6.43
2017-06-13T23:02:54.853Z,6.50
2017-06-13T23:05:22.397Z,7.20
2017-06-13T23:07:49.969Z,6.23
2017-06-13T23:10:17.564Z,5.90
2017-06-13T23:12:45.102Z,7.30
2017-06-13T23:15:12.637Z,7.00
2017-06-13T23:17:40.222Z,7.17
2017-06-13T23:20:07.763Z,8.03
2017-06-13T23:22:35.316Z,7.17
2017-06-13T23:25:02.909Z,6.63
2017-06-13T23:27:30.432Z,6.90
2017-06-13T23:29:57.985Z,6.43
2017-06-13T23:32:25.594Z,6.47
2017-06-13T23:34:53.116Z,7.00
2017-06-13T23:37:20.655Z,7.67
2017-06-13T23:39:48.224Z,7.57
2017-06-13T23:42:15.760Z,7.20
2017-06-13T23:44:43.301Z,6.40
2017-06-13T23:47:11.653Z,6.97
2017-06-13T23:49:39.184Z,10.10
2017-06-13T23:52:06.738Z,6.70
2017-06-13T23:54:34.365Z,9.13
2017-06-13T23:57:02.655Z,6.47
2017-06-13T23:59:30.203Z,8.73
